Terminal Aerodrome Forecast
Issued by NWS Quad Cities IA IL

Home | Current Version | Previous Version | Text Only | Print | Product List | Glossary On
Versions: 1 2 3 4 5 6 7 8 9 10 11 12 13 14 15 16 17
131
FTUS43 KDVN 070540
TAFMLI
TAF
KMLI 070540Z 0706/0806 21007KT P6SM SKC
     FM071900 27014G22KT P6SM BKN040
     FM080400 30015G25KT P6SM VCSH OVC030 PROB30 0804/0806 2SM -SN
      BR OVC020=

USA.gov is the U.S. government's official web portal to all federal, state and local government web resources and services.